Etusivu
METAR-TAF:

METAR-TAF

Lentoasemat :

Pasto, Kolumbia

Leveyspiiri: 01-25N, Pituuspiiri: 077-16W, korkeus merenpinnasta: 1826 m

Tämänhetkinen sää

Tämä raportti tehtiin 36 minuuttia sitten, kello 20.00 UTC
Tuuli 5 kn eri suunnista
Lämpötila 27°C
Kosteus 51%
Ilmanpaine 1017 hPa
Näkyvyys 10 km tai enemmän
Muutamia pilviä 2800 ft:n korkeudessa

METAR: SKPS 122000Z VRB05KT 9999 FEW028 27/16 Q1017

Aika: 15:36 (20:36 UTC)


TAF: puuttuu

Säähavainnot ja -ennusteet yli 4000 lentoasemalta (METAR- ja TAF-raportit).

Käytössä olevat sääasemat on merkitty karttaan keltaisilla ja punaisilla pisteillä.

Aseta hiiri pisteen päälle nähdäksesi sääaseman nimen.

Klikkaa sitten nähdäksesi säähavainnot ja -ennusteet.

Kartan vaihtaminen: klikkaa mustalla rastilla varustettuja vihreitä pisteitä, niin voit zoomata sisään; viivalla varustettua vihreää pistettä, niin voit zoomata ulos tai vihreitä nuolia, niin pääset viereisille kartoille.


METAR-TAF: